sensor_id;sensor_type;location;lat;lon;timestamp;temperature;humidity
69418;DHT22;56610;48.872;2.400;2023-04-06T00:01:35;16.00;67.40
69418;DHT22;56610;48.872;2.400;2023-04-06T00:04:01;16.00;68.30
69418;DHT22;56610;48.872;2.400;2023-04-06T00:06:26;15.90;68.30
69418;DHT22;56610;48.872;2.400;2023-04-06T00:08:52;15.90;69.00
69418;DHT22;56610;48.872;2.400;2023-04-06T00:11:17;15.90;69.50
69418;DHT22;56610;48.872;2.400;2023-04-06T00:13:43;15.90;69.50
69418;DHT22;56610;48.872;2.400;2023-04-06T00:16:09;15.90;69.60
69418;DHT22;56610;48.872;2.400;2023-04-06T00:18:34;15.90;70.00
69418;DHT22;56610;48.872;2.400;2023-04-06T00:21:00;15.80;70.30
69418;DHT22;56610;48.872;2.400;2023-04-06T00:23:26;15.70;70.30
69418;DHT22;56610;48.872;2.400;2023-04-06T00:25:51;15.70;70.40
69418;DHT22;56610;48.872;2.400;2023-04-06T00:28:17;15.70;70.50
69418;DHT22;56610;48.872;2.400;2023-04-06T00:30:43;15.60;70.70
69418;DHT22;56610;48.872;2.400;2023-04-06T00:33:08;15.50;71.50
69418;DHT22;56610;48.872;2.400;2023-04-06T00:35:34;15.40;72.20
69418;DHT22;56610;48.872;2.400;2023-04-06T00:38:00;15.40;72.70
69418;DHT22;56610;48.872;2.400;2023-04-06T00:40:26;15.30;73.30
69418;DHT22;56610;48.872;2.400;2023-04-06T00:42:54;15.30;73.70
69418;DHT22;56610;48.872;2.400;2023-04-06T00:45:19;15.30;74.40
69418;DHT22;56610;48.872;2.400;2023-04-06T00:47:45;15.50;74.90
69418;DHT22;56610;48.872;2.400;2023-04-06T00:50:11;15.50;74.60
69418;DHT22;56610;48.872;2.400;2023-04-06T00:52:36;15.40;74.70
69418;DHT22;56610;48.872;2.400;2023-04-06T00:55:03;15.40;75.20
69418;DHT22;56610;48.872;2.400;2023-04-06T00:57:28;15.20;75.60
69418;DHT22;56610;48.872;2.400;2023-04-06T00:59:55;15.30;76.00
69418;DHT22;56610;48.872;2.400;2023-04-06T01:02:21;15.20;76.20
69418;DHT22;56610;48.872;2.400;2023-04-06T01:04:46;15.20;76.60
69418;DHT22;56610;48.872;2.400;2023-04-06T01:07:12;15.10;76.80
69418;DHT22;56610;48.872;2.400;2023-04-06T01:09:37;15.10;77.10
69418;DHT22;56610;48.872;2.400;2023-04-06T01:12:06;15.00;77.40
69418;DHT22;56610;48.872;2.400;2023-04-06T01:14:31;15.00;77.50
69418;DHT22;56610;48.872;2.400;2023-04-06T01:16:58;15.10;77.90
69418;DHT22;56610;48.872;2.400;2023-04-06T01:19:24;15.00;77.90
69418;DHT22;56610;48.872;2.400;2023-04-06T01:21:50;15.10;78.00
69418;DHT22;56610;48.872;2.400;2023-04-06T01:24:16;15.20;77.90
69418;DHT22;56610;48.872;2.400;2023-04-06T01:26:42;15.20;77.70
69418;DHT22;56610;48.872;2.400;2023-04-06T01:29:08;15.10;78.00
69418;DHT22;56610;48.872;2.400;2023-04-06T01:31:33;15.00;78.60
69418;DHT22;56610;48.872;2.400;2023-04-06T01:33:59;15.00;79.00
69418;DHT22;56610;48.872;2.400;2023-04-06T01:36:24;15.10;79.30
69418;DHT22;56610;48.872;2.400;2023-04-06T01:38:50;15.20;79.20
69418;DHT22;56610;48.872;2.400;2023-04-06T01:41:16;15.20;79.90
69418;DHT22;56610;48.872;2.400;2023-04-06T01:43:41;15.20;80.40
69418;DHT22;56610;48.872;2.400;2023-04-06T01:46:07;15.30;80.90
69418;DHT22;56610;48.872;2.400;2023-04-06T01:48:33;15.30;81.30
69418;DHT22;56610;48.872;2.400;2023-04-06T01:50:58;15.20;81.80
69418;DHT22;56610;48.872;2.400;2023-04-06T01:53:24;15.20;82.50
69418;DHT22;56610;48.872;2.400;2023-04-06T01:55:49;15.10;82.90
69418;DHT22;56610;48.872;2.400;2023-04-06T01:58:15;15.00;83.40
69418;DHT22;56610;48.872;2.400;2023-04-06T02:00:40;14.90;84.20
69418;DHT22;56610;48.872;2.400;2023-04-06T02:03:06;14.80;84.70
69418;DHT22;56610;48.872;2.400;2023-04-06T02:05:33;14.60;85.40
69418;DHT22;56610;48.872;2.400;2023-04-06T02:08:03;14.70;85.80
69418;DHT22;56610;48.872;2.400;2023-04-06T02:10:29;15.00;85.50
69418;DHT22;56610;48.872;2.400;2023-04-06T02:12:55;15.00;85.40
69418;DHT22;56610;48.872;2.400;2023-04-06T02:15:21;14.80;85.90
69418;DHT22;56610;48.872;2.400;2023-04-06T02:17:46;14.60;86.40
69418;DHT22;56610;48.872;2.400;2023-04-06T02:20:12;14.70;86.90
69418;DHT22;56610;48.872;2.400;2023-04-06T02:22:38;14.60;87.30
69418;DHT22;56610;48.872;2.400;2023-04-06T02:25:04;14.60;87.60
69418;DHT22;56610;48.872;2.400;2023-04-06T02:27:30;14.70;88.00
69418;DHT22;56610;48.872;2.400;2023-04-06T02:29:56;14.60;88.20
69418;DHT22;56610;48.872;2.400;2023-04-06T02:32:21;14.60;88.60
69418;DHT22;56610;48.872;2.400;2023-04-06T02:34:47;14.50;88.70
69418;DHT22;56610;48.872;2.400;2023-04-06T02:37:12;14.60;89.20
69418;DHT22;56610;48.872;2.400;2023-04-06T02:39:38;14.50;89.00
69418;DHT22;56610;48.872;2.400;2023-04-06T02:42:04;14.60;89.10
69418;DHT22;56610;48.872;2.400;2023-04-06T02:44:29;14.90;88.60
69418;DHT22;56610;48.872;2.400;2023-04-06T02:46:55;14.80;88.30
69418;DHT22;56610;48.872;2.400;2023-04-06T02:49:20;14.90;88.30
69418;DHT22;56610;48.872;2.400;2023-04-06T02:51:46;14.90;88.10
69418;DHT22;56610;48.872;2.400;2023-04-06T02:54:12;15.00;87.40
69418;DHT22;56610;48.872;2.400;2023-04-06T02:56:37;15.10;87.50
69418;DHT22;56610;48.872;2.400;2023-04-06T02:59:03;15.10;87.20
69418;DHT22;56610;48.872;2.400;2023-04-06T03:01:29;15.10;87.50
69418;DHT22;56610;48.872;2.400;2023-04-06T03:03:54;15.20;87.30
69418;DHT22;56610;48.872;2.400;2023-04-06T03:06:20;15.20;87.10
69418;DHT22;56610;48.872;2.400;2023-04-06T03:08:45;15.20;87.10
69418;DHT22;56610;48.872;2.400;2023-04-06T03:11:12;15.10;87.30
69418;DHT22;56610;48.872;2.400;2023-04-06T03:13:38;15.10;87.40
69418;DHT22;56610;48.872;2.400;2023-04-06T03:16:06;15.00;87.90
69418;DHT22;56610;48.872;2.400;2023-04-06T03:18:32;15.00;88.60
69418;DHT22;56610;48.872;2.400;2023-04-06T03:20:58;15.00;88.80
69418;DHT22;56610;48.872;2.400;2023-04-06T03:23:25;15.00;88.40
69418;DHT22;56610;48.872;2.400;2023-04-06T03:25:51;15.10;88.60
69418;DHT22;56610;48.872;2.400;2023-04-06T03:28:16;15.30;88.30
69418;DHT22;56610;48.872;2.400;2023-04-06T03:30:42;15.10;88.50
69418;DHT22;56610;48.872;2.400;2023-04-06T03:33:08;15.20;88.30
69418;DHT22;56610;48.872;2.400;2023-04-06T03:35:33;15.00;88.70
69418;DHT22;56610;48.872;2.400;2023-04-06T03:37:59;15.10;88.80
69418;DHT22;56610;48.872;2.400;2023-04-06T03:40:25;15.00;88.70
69418;DHT22;56610;48.872;2.400;2023-04-06T03:42:50;15.00;88.70
69418;DHT22;56610;48.872;2.400;2023-04-06T03:45:16;14.90;88.10
69418;DHT22;56610;48.872;2.400;2023-04-06T03:47:42;14.90;88.20
69418;DHT22;56610;48.872;2.400;2023-04-06T03:50:07;14.70;88.20
69418;DHT22;56610;48.872;2.400;2023-04-06T03:52:35;14.60;88.80
69418;DHT22;56610;48.872;2.400;2023-04-06T03:55:00;14.60;88.90
69418;DHT22;56610;48.872;2.400;2023-04-06T03:57:26;14.60;89.40
69418;DHT22;56610;48.872;2.400;2023-04-06T03:59:51;14.60;89.00
69418;DHT22;56610;48.872;2.400;2023-04-06T04:02:17;14.60;89.50
69418;DHT22;56610;48.872;2.400;2023-04-06T04:04:42;14.60;89.00
69418;DHT22;56610;48.872;2.400;2023-04-06T04:07:08;14.70;89.10
69418;DHT22;56610;48.872;2.400;2023-04-06T04:09:34;14.40;89.70
69418;DHT22;56610;48.872;2.400;2023-04-06T04:11:59;14.40;90.20
69418;DHT22;56610;48.872;2.400;2023-04-06T04:14:25;14.50;90.20
69418;DHT22;56610;48.872;2.400;2023-04-06T04:16:51;14.50;90.00
69418;DHT22;56610;48.872;2.400;2023-04-06T04:19:16;14.40;90.40
69418;DHT22;56610;48.872;2.400;2023-04-06T04:21:43;14.60;90.40
69418;DHT22;56610;48.872;2.400;2023-04-06T04:24:10;14.60;90.00
69418;DHT22;56610;48.872;2.400;2023-04-06T04:26:35;14.50;89.80
69418;DHT22;56610;48.872;2.400;2023-04-06T04:29:01;14.30;90.10
69418;DHT22;56610;48.872;2.400;2023-04-06T04:31:27;14.40;90.30
69418;DHT22;56610;48.872;2.400;2023-04-06T04:33:52;14.50;90.40
69418;DHT22;56610;48.872;2.400;2023-04-06T04:36:18;14.60;90.50
69418;DHT22;56610;48.872;2.400;2023-04-06T04:38:43;14.80;90.50
69418;DHT22;56610;48.872;2.400;2023-04-06T04:41:09;14.80;90.30
69418;DHT22;56610;48.872;2.400;2023-04-06T04:43:34;14.80;90.10
69418;DHT22;56610;48.872;2.400;2023-04-06T04:46:00;14.80;90.20
69418;DHT22;56610;48.872;2.400;2023-04-06T04:48:25;14.90;90.10
69418;DHT22;56610;48.872;2.400;2023-04-06T04:50:51;14.80;90.10
69418;DHT22;56610;48.872;2.400;2023-04-06T04:53:17;14.90;89.90
69418;DHT22;56610;48.872;2.400;2023-04-06T04:55:42;14.90;89.80
69418;DHT22;56610;48.872;2.400;2023-04-06T04:58:08;15.00;90.50
69418;DHT22;56610;48.872;2.400;2023-04-06T05:00:34;15.20;89.70
69418;DHT22;56610;48.872;2.400;2023-04-06T05:03:00;15.20;89.40
69418;DHT22;56610;48.872;2.400;2023-04-06T05:05:26;15.10;89.10
69418;DHT22;56610;48.872;2.400;2023-04-06T05:07:51;15.00;89.40
69418;DHT22;56610;48.872;2.400;2023-04-06T05:10:17;14.90;89.40
69418;DHT22;56610;48.872;2.400;2023-04-06T05:12:42;14.90;89.80
69418;DHT22;56610;48.872;2.400;2023-04-06T05:15:09;14.80;90.10
69418;DHT22;56610;48.872;2.400;2023-04-06T05:17:35;14.90;90.00
69418;DHT22;56610;48.872;2.400;2023-04-06T05:20:00;14.80;90.10
69418;DHT22;56610;48.872;2.400;2023-04-06T05:22:26;14.80;90.10
69418;DHT22;56610;48.872;2.400;2023-04-06T05:24:51;15.00;90.10
69418;DHT22;56610;48.872;2.400;2023-04-06T05:27:17;15.00;90.00
69418;DHT22;56610;48.872;2.400;2023-04-06T05:29:43;15.10;89.70
69418;DHT22;56610;48.872;2.400;2023-04-06T05:32:08;15.10;89.90
69418;DHT22;56610;48.872;2.400;2023-04-06T05:34:34;15.10;90.40
69418;DHT22;56610;48.872;2.400;2023-04-06T05:36:59;15.00;90.60
69418;DHT22;56610;48.872;2.400;2023-04-06T05:39:25;15.00;91.10
69418;DHT22;56610;48.872;2.400;2023-04-06T05:41:50;15.10;91.60
69418;DHT22;56610;48.872;2.400;2023-04-06T05:44:16;15.10;91.40
69418;DHT22;56610;48.872;2.400;2023-04-06T05:46:42;15.00;91.40
69418;DHT22;56610;48.872;2.400;2023-04-06T05:49:07;15.00;91.30
69418;DHT22;56610;48.872;2.400;2023-04-06T05:51:33;15.10;92.10
69418;DHT22;56610;48.872;2.400;2023-04-06T05:53:59;14.90;91.50
69418;DHT22;56610;48.872;2.400;2023-04-06T05:56:25;14.80;92.40
69418;DHT22;56610;48.872;2.400;2023-04-06T05:58:50;14.80;92.90
69418;DHT22;56610;48.872;2.400;2023-04-06T06:01:16;14.80;92.90
69418;DHT22;56610;48.872;2.400;2023-04-06T06:03:41;14.80;92.70
69418;DHT22;56610;48.872;2.400;2023-04-06T06:06:07;14.70;92.40
69418;DHT22;56610;48.872;2.400;2023-04-06T06:08:33;14.70;93.40
69418;DHT22;56610;48.872;2.400;2023-04-06T06:10:58;14.60;94.00
69418;DHT22;56610;48.872;2.400;2023-04-06T06:13:24;14.70;94.10
69418;DHT22;56610;48.872;2.400;2023-04-06T06:15:50;14.70;94.10
69418;DHT22;56610;48.872;2.400;2023-04-06T06:18:16;14.80;94.10
69418;DHT22;56610;48.872;2.400;2023-04-06T06:20:41;15.10;94.00
69418;DHT22;56610;48.872;2.400;2023-04-06T06:23:07;15.00;93.60
69418;DHT22;56610;48.872;2.400;2023-04-06T06:25:32;14.80;93.80
69418;DHT22;56610;48.872;2.400;2023-04-06T06:27:58;14.70;93.00
69418;DHT22;56610;48.872;2.400;2023-04-06T06:30:24;14.60;95.10
69418;DHT22;56610;48.872;2.400;2023-04-06T06:32:50;14.60;94.50
69418;DHT22;56610;48.872;2.400;2023-04-06T06:35:16;14.70;94.10
69418;DHT22;56610;48.872;2.400;2023-04-06T06:37:42;14.80;93.60
69418;DHT22;56610;48.872;2.400;2023-04-06T06:40:09;15.00;94.00
69418;DHT22;56610;48.872;2.400;2023-04-06T06:42:35;15.20;93.90
69418;DHT22;56610;48.872;2.400;2023-04-06T06:45:01;15.40;93.40
69418;DHT22;56610;48.872;2.400;2023-04-06T06:47:26;15.60;93.30
69418;DHT22;56610;48.872;2.400;2023-04-06T06:49:52;15.60;93.30
69418;DHT22;56610;48.872;2.400;2023-04-06T06:52:18;15.50;92.90
69418;DHT22;56610;48.872;2.400;2023-04-06T06:54:44;15.40;93.10
69418;DHT22;56610;48.872;2.400;2023-04-06T06:57:09;15.40;92.80
69418;DHT22;56610;48.872;2.400;2023-04-06T06:59:35;15.60;92.30
69418;DHT22;56610;48.872;2.400;2023-04-06T07:02:01;15.70;91.90
69418;DHT22;56610;48.872;2.400;2023-04-06T07:04:26;15.70;92.30
69418;DHT22;56610;48.872;2.400;2023-04-06T07:06:52;15.50;92.40
69418;DHT22;56610;48.872;2.400;2023-04-06T07:09:18;15.50;92.20
69418;DHT22;56610;48.872;2.400;2023-04-06T07:11:44;15.50;92.40
69418;DHT22;56610;48.872;2.400;2023-04-06T07:14:09;15.30;92.60
69418;DHT22;56610;48.872;2.400;2023-04-06T07:16:36;15.40;93.00
69418;DHT22;56610;48.872;2.400;2023-04-06T07:19:02;15.40;92.80
69418;DHT22;56610;48.872;2.400;2023-04-06T07:21:28;15.40;93.50
69418;DHT22;56610;48.872;2.400;2023-04-06T07:23:53;15.50;93.10
69418;DHT22;56610;48.872;2.400;2023-04-06T07:26:19;15.60;93.10
69418;DHT22;56610;48.872;2.400;2023-04-06T07:28:45;15.50;93.00
69418;DHT22;56610;48.872;2.400;2023-04-06T07:31:11;15.40;93.60
69418;DHT22;56610;48.872;2.400;2023-04-06T07:33:36;15.30;93.90
69418;DHT22;56610;48.872;2.400;2023-04-06T07:36:02;15.10;93.80
69418;DHT22;56610;48.872;2.400;2023-04-06T07:38:28;15.10;94.30
69418;DHT22;56610;48.872;2.400;2023-04-06T07:40:53;14.90;94.70
69418;DHT22;56610;48.872;2.400;2023-04-06T07:43:19;14.40;95.70
69418;DHT22;56610;48.872;2.400;2023-04-06T07:45:45;14.30;96.70
69418;DHT22;56610;48.872;2.400;2023-04-06T07:48:11;14.00;97.60
69418;DHT22;56610;48.872;2.400;2023-04-06T07:50:36;14.10;99.30
69418;DHT22;56610;48.872;2.400;2023-04-06T07:53:02;13.70;99.70
69418;DHT22;56610;48.872;2.400;2023-04-06T07:55:28;13.80;99.90
69418;DHT22;56610;48.872;2.400;2023-04-06T07:57:53;13.90;99.90
69418;DHT22;56610;48.872;2.400;2023-04-06T08:00:19;14.10;99.90
69418;DHT22;56610;48.872;2.400;2023-04-06T08:02:45;13.90;99.90
69418;DHT22;56610;48.872;2.400;2023-04-06T08:05:11;14.00;99.90
69418;DHT22;56610;48.872;2.400;2023-04-06T08:07:37;13.90;99.90
69418;DHT22;56610;48.872;2.400;2023-04-06T08:10:03;13.70;99.90
69418;DHT22;56610;48.872;2.400;2023-04-06T08:12:28;13.80;99.90
69418;DHT22;56610;48.872;2.400;2023-04-06T08:14:54;13.80;99.90
69418;DHT22;56610;48.872;2.400;2023-04-06T08:17:20;13.90;99.90
69418;DHT22;56610;48.872;2.400;2023-04-06T08:19:45;14.00;99.90
69418;DHT22;56610;48.872;2.400;2023-04-06T08:22:11;14.10;99.90
69418;DHT22;56610;48.872;2.400;2023-04-06T08:24:37;14.00;99.90
69418;DHT22;56610;48.872;2.400;2023-04-06T08:27:03;13.90;99.90
69418;DHT22;56610;48.872;2.400;2023-04-06T08:29:28;14.00;99.90
69418;DHT22;56610;48.872;2.400;2023-04-06T08:31:54;14.20;99.90
69418;DHT22;56610;48.872;2.400;2023-04-06T08:34:21;14.10;99.90
69418;DHT22;56610;48.872;2.400;2023-04-06T08:36:46;14.20;99.90
69418;DHT22;56610;48.872;2.400;2023-04-06T08:39:12;14.10;99.90
69418;DHT22;56610;48.872;2.400;2023-04-06T08:41:41;14.00;99.90
69418;DHT22;56610;48.872;2.400;2023-04-06T08:44:06;14.10;99.90
69418;DHT22;56610;48.872;2.400;2023-04-06T08:46:32;14.10;99.90
69418;DHT22;56610;48.872;2.400;2023-04-06T08:48:59;14.10;99.90
69418;DHT22;56610;48.872;2.400;2023-04-06T08:51:27;13.90;99.90
69418;DHT22;56610;48.872;2.400;2023-04-06T08:53:54;13.80;99.90
69418;DHT22;56610;48.872;2.400;2023-04-06T08:56:22;13.90;99.90
69418;DHT22;56610;48.872;2.400;2023-04-06T08:58:48;14.00;99.90
69418;DHT22;56610;48.872;2.400;2023-04-06T09:01:14;14.00;99.90
69418;DHT22;56610;48.872;2.400;2023-04-06T09:03:42;14.20;99.90
69418;DHT22;56610;48.872;2.400;2023-04-06T09:06:09;14.10;99.90
69418;DHT22;56610;48.872;2.400;2023-04-06T09:08:35;13.80;99.90
69418;DHT22;56610;48.872;2.400;2023-04-06T09:11:02;13.80;99.90
69418;DHT22;56610;48.872;2.400;2023-04-06T09:13:28;14.10;99.90
69418;DHT22;56610;48.872;2.400;2023-04-06T09:16:04;14.00;99.90
69418;DHT22;56610;48.872;2.400;2023-04-06T09:21:19;14.10;99.90
69418;DHT22;56610;48.872;2.400;2023-04-06T09:23:45;14.20;99.90
69418;DHT22;56610;48.872;2.400;2023-04-06T09:26:12;14.30;99.90
69418;DHT22;56610;48.872;2.400;2023-04-06T09:28:57;14.30;99.90
69418;DHT22;56610;48.872;2.400;2023-04-06T09:31:29;14.50;99.90
69418;DHT22;56610;48.872;2.400;2023-04-06T09:33:56;14.60;99.90
69418;DHT22;56610;48.872;2.400;2023-04-06T09:36:32;14.60;99.90
69418;DHT22;56610;48.872;2.400;2023-04-06T09:39:00;14.60;99.90
69418;DHT22;56610;48.872;2.400;2023-04-06T09:41:37;14.60;99.90
69418;DHT22;56610;48.872;2.400;2023-04-06T09:46:31;14.50;99.90
69418;DHT22;56610;48.872;2.400;2023-04-06T09:48:57;14.60;99.90
69418;DHT22;56610;48.872;2.400;2023-04-06T09:51:24;14.60;99.90
69418;DHT22;56610;48.872;2.400;2023-04-06T09:53:52;14.50;99.90
69418;DHT22;56610;48.872;2.400;2023-04-06T09:56:23;14.30;99.90
69418;DHT22;56610;48.872;2.400;2023-04-06T09:58:53;14.30;99.90
69418;DHT22;56610;48.872;2.400;2023-04-06T10:01:22;14.00;99.90
69418;DHT22;56610;48.872;2.400;2023-04-06T10:03:56;13.90;99.90
69418;DHT22;56610;48.872;2.400;2023-04-06T10:06:26;14.00;99.90
69418;DHT22;56610;48.872;2.400;2023-04-06T10:08:55;14.10;99.90
69418;DHT22;56610;48.872;2.400;2023-04-06T10:11:22;14.10;99.90
69418;DHT22;56610;48.872;2.400;2023-04-06T10:16:34;14.40;99.90
69418;DHT22;56610;48.872;2.400;2023-04-06T10:19:09;14.30;99.90
69418;DHT22;56610;48.872;2.400;2023-04-06T10:21:39;14.30;99.90
69418;DHT22;56610;48.872;2.400;2023-04-06T10:24:08;14.10;99.90
69418;DHT22;56610;48.872;2.400;2023-04-06T10:26:36;14.10;99.90
69418;DHT22;56610;48.872;2.400;2023-04-06T10:29:05;14.10;99.90
69418;DHT22;56610;48.872;2.400;2023-04-06T10:31:31;14.20;99.90
69418;DHT22;56610;48.872;2.400;2023-04-06T10:33:58;14.20;99.90
69418;DHT22;56610;48.872;2.400;2023-04-06T10:36:31;14.20;99.90
69418;DHT22;56610;48.872;2.400;2023-04-06T10:38:59;14.30;99.90
69418;DHT22;56610;48.872;2.400;2023-04-06T10:41:43;14.30;99.90
69418;DHT22;56610;48.872;2.400;2023-04-06T10:44:21;14.20;99.90
69418;DHT22;56610;48.872;2.400;2023-04-06T10:46:58;14.30;99.90
69418;DHT22;56610;48.872;2.400;2023-04-06T10:49:26;14.40;99.90
69418;DHT22;56610;48.872;2.400;2023-04-06T10:51:53;14.50;99.90
69418;DHT22;56610;48.872;2.400;2023-04-06T10:54:21;14.50;99.90
69418;DHT22;56610;48.872;2.400;2023-04-06T10:56:47;14.50;99.90
69418;DHT22;56610;48.872;2.400;2023-04-06T10:59:12;14.50;99.90
69418;DHT22;56610;48.872;2.400;2023-04-06T11:01:38;14.60;99.90
69418;DHT22;56610;48.872;2.400;2023-04-06T11:04:09;14.50;99.90
69418;DHT22;56610;48.872;2.400;2023-04-06T11:06:39;14.50;99.90
69418;DHT22;56610;48.872;2.400;2023-04-06T11:09:04;14.70;99.90
69418;DHT22;56610;48.872;2.400;2023-04-06T11:11:30;14.70;99.90
69418;DHT22;56610;48.872;2.400;2023-04-06T11:13:57;14.70;99.90
69418;DHT22;56610;48.872;2.400;2023-04-06T11:16:25;14.70;99.90
69418;DHT22;56610;48.872;2.400;2023-04-06T11:18:59;14.90;99.90
69418;DHT22;56610;48.872;2.400;2023-04-06T11:24:11;15.10;99.90
69418;DHT22;56610;48.872;2.400;2023-04-06T11:26:39;15.20;99.90
69418;DHT22;56610;48.872;2.400;2023-04-06T11:29:05;15.20;99.90
69418;DHT22;56610;48.872;2.400;2023-04-06T11:31:31;15.20;99.90
69418;DHT22;56610;48.872;2.400;2023-04-06T11:33:57;15.30;99.90
69418;DHT22;56610;48.872;2.400;2023-04-06T11:36:23;15.40;99.90
69418;DHT22;56610;48.872;2.400;2023-04-06T11:38:49;15.30;99.90
69418;DHT22;56610;48.872;2.400;2023-04-06T11:41:15;15.30;99.90
69418;DHT22;56610;48.872;2.400;2023-04-06T11:43:47;15.40;99.90
69418;DHT22;56610;48.872;2.400;2023-04-06T11:46:17;15.60;99.90
69418;DHT22;56610;48.872;2.400;2023-04-06T11:48:46;15.70;99.90
69418;DHT22;56610;48.872;2.400;2023-04-06T11:51:11;15.90;99.90
69418;DHT22;56610;48.872;2.400;2023-04-06T11:53:44;16.00;99.90
69418;DHT22;56610;48.872;2.400;2023-04-06T11:56:23;16.30;99.90
69418;DHT22;56610;48.872;2.400;2023-04-06T11:58:49;16.30;99.90
69418;DHT22;56610;48.872;2.400;2023-04-06T12:01:15;16.40;99.90
69418;DHT22;56610;48.872;2.400;2023-04-06T12:03:41;16.30;99.90
69418;DHT22;56610;48.872;2.400;2023-04-06T12:06:06;16.40;99.90
69418;DHT22;56610;48.872;2.400;2023-04-06T12:08:32;16.60;99.90
69418;DHT22;56610;48.872;2.400;2023-04-06T12:10:57;16.60;99.90
69418;DHT22;56610;48.872;2.400;2023-04-06T12:13:24;17.00;99.90
69418;DHT22;56610;48.872;2.400;2023-04-06T12:15:50;17.20;99.90
69418;DHT22;56610;48.872;2.400;2023-04-06T12:18:15;17.10;99.90
69418;DHT22;56610;48.872;2.400;2023-04-06T12:20:41;17.30;99.90
69418;DHT22;56610;48.872;2.400;2023-04-06T12:23:06;17.50;99.90
69418;DHT22;56610;48.872;2.400;2023-04-06T12:25:32;17.60;99.90
69418;DHT22;56610;48.872;2.400;2023-04-06T12:27:58;17.90;99.90
69418;DHT22;56610;48.872;2.400;2023-04-06T12:30:23;17.90;99.90
69418;DHT22;56610;48.872;2.400;2023-04-06T12:32:50;17.90;99.90
69418;DHT22;56610;48.872;2.400;2023-04-06T12:35:16;17.70;99.90
69418;DHT22;56610;48.872;2.400;2023-04-06T12:37:41;17.50;99.90
69418;DHT22;56610;48.872;2.400;2023-04-06T12:40:08;17.40;99.90
69418;DHT22;56610;48.872;2.400;2023-04-06T12:42:36;17.20;99.90
69418;DHT22;56610;48.872;2.400;2023-04-06T12:45:02;17.10;99.90
69418;DHT22;56610;48.872;2.400;2023-04-06T12:47:27;16.90;99.90
69418;DHT22;56610;48.872;2.400;2023-04-06T12:49:54;16.80;99.90
69418;DHT22;56610;48.872;2.400;2023-04-06T12:52:20;16.60;99.90
69418;DHT22;56610;48.872;2.400;2023-04-06T12:54:46;16.50;99.90
69418;DHT22;56610;48.872;2.400;2023-04-06T12:57:12;16.60;99.90
69418;DHT22;56610;48.872;2.400;2023-04-06T12:59:38;16.50;99.90
69418;DHT22;56610;48.872;2.400;2023-04-06T13:02:03;16.50;99.90
69418;DHT22;56610;48.872;2.400;2023-04-06T13:04:30;16.60;99.90
69418;DHT22;56610;48.872;2.400;2023-04-06T13:06:55;16.60;99.90
69418;DHT22;56610;48.872;2.400;2023-04-06T13:09:21;16.60;99.90
69418;DHT22;56610;48.872;2.400;2023-04-06T13:11:46;16.50;99.90
69418;DHT22;56610;48.872;2.400;2023-04-06T13:14:12;16.50;99.90
69418;DHT22;56610;48.872;2.400;2023-04-06T13:16:38;16.40;99.90
69418;DHT22;56610;48.872;2.400;2023-04-06T13:19:03;16.50;99.90
69418;DHT22;56610;48.872;2.400;2023-04-06T13:21:29;16.40;99.90
69418;DHT22;56610;48.872;2.400;2023-04-06T13:23:55;16.30;99.90
69418;DHT22;56610;48.872;2.400;2023-04-06T13:26:21;16.30;99.90
69418;DHT22;56610;48.872;2.400;2023-04-06T13:28:47;16.30;99.90
69418;DHT22;56610;48.872;2.400;2023-04-06T13:31:13;16.20;99.90
69418;DHT22;56610;48.872;2.400;2023-04-06T13:33:39;16.20;99.90
69418;DHT22;56610;48.872;2.400;2023-04-06T13:36:06;16.20;99.90
69418;DHT22;56610;48.872;2.400;2023-04-06T13:38:32;16.20;99.90
69418;DHT22;56610;48.872;2.400;2023-04-06T13:40:59;16.20;99.90
69418;DHT22;56610;48.872;2.400;2023-04-06T13:43:25;16.30;99.90
69418;DHT22;56610;48.872;2.400;2023-04-06T13:45:53;16.20;99.90
69418;DHT22;56610;48.872;2.400;2023-04-06T13:48:23;16.30;99.90
69418;DHT22;56610;48.872;2.400;2023-04-06T13:50:49;16.40;99.90
69418;DHT22;56610;48.872;2.400;2023-04-06T13:53:15;16.30;99.90
69418;DHT22;56610;48.872;2.400;2023-04-06T13:55:40;16.40;99.90
69418;DHT22;56610;48.872;2.400;2023-04-06T13:58:06;16.40;99.90
69418;DHT22;56610;48.872;2.400;2023-04-06T14:00:32;16.60;99.90
69418;DHT22;56610;48.872;2.400;2023-04-06T14:02:57;16.70;99.90
69418;DHT22;56610;48.872;2.400;2023-04-06T14:05:23;16.60;99.90
69418;DHT22;56610;48.872;2.400;2023-04-06T14:07:49;16.50;99.90
69418;DHT22;56610;48.872;2.400;2023-04-06T14:10:15;16.50;99.90
69418;DHT22;56610;48.872;2.400;2023-04-06T14:12:44;16.50;99.90
69418;DHT22;56610;48.872;2.400;2023-04-06T14:15:11;16.50;99.90
69418;DHT22;56610;48.872;2.400;2023-04-06T14:17:37;16.60;99.90
69418;DHT22;56610;48.872;2.400;2023-04-06T14:20:05;16.60;99.90
69418;DHT22;56610;48.872;2.400;2023-04-06T14:22:31;16.60;99.90
69418;DHT22;56610;48.872;2.400;2023-04-06T14:24:59;16.70;99.90
69418;DHT22;56610;48.872;2.400;2023-04-06T14:27:25;16.80;99.90
69418;DHT22;56610;48.872;2.400;2023-04-06T14:29:51;16.90;99.90
69418;DHT22;56610;48.872;2.400;2023-04-06T14:32:19;17.00;99.90
69418;DHT22;56610;48.872;2.400;2023-04-06T14:34:44;17.10;99.90
69418;DHT22;56610;48.872;2.400;2023-04-06T14:37:10;17.40;99.90
69418;DHT22;56610;48.872;2.400;2023-04-06T14:39:36;17.70;99.90
69418;DHT22;56610;48.872;2.400;2023-04-06T14:42:02;17.80;99.70
69418;DHT22;56610;48.872;2.400;2023-04-06T14:44:27;17.90;99.10
69418;DHT22;56610;48.872;2.400;2023-04-06T14:46:53;18.00;98.90
69418;DHT22;56610;48.872;2.400;2023-04-06T14:49:18;18.00;98.50
69418;DHT22;56610;48.872;2.400;2023-04-06T14:51:44;18.20;98.60
69418;DHT22;56610;48.872;2.400;2023-04-06T14:54:10;18.50;98.20
69418;DHT22;56610;48.872;2.400;2023-04-06T14:56:35;18.60;97.80
69418;DHT22;56610;48.872;2.400;2023-04-06T14:59:03;18.60;97.80
69418;DHT22;56610;48.872;2.400;2023-04-06T15:01:28;18.70;97.70
69418;DHT22;56610;48.872;2.400;2023-04-06T15:03:54;18.70;97.70
69418;DHT22;56610;48.872;2.400;2023-04-06T15:06:20;18.60;98.00
69418;DHT22;56610;48.872;2.400;2023-04-06T15:08:47;18.60;97.60
69418;DHT22;56610;48.872;2.400;2023-04-06T15:11:13;18.50;97.60
69418;DHT22;56610;48.872;2.400;2023-04-06T15:13:39;18.40;98.00
69418;DHT22;56610;48.872;2.400;2023-04-06T15:16:06;18.40;98.00
69418;DHT22;56610;48.872;2.400;2023-04-06T15:18:33;18.30;97.80
69418;DHT22;56610;48.872;2.400;2023-04-06T15:20:58;18.40;98.00
69418;DHT22;56610;48.872;2.400;2023-04-06T15:23:24;18.50;98.00
69418;DHT22;56610;48.872;2.400;2023-04-06T15:25:50;18.50;98.30
69418;DHT22;56610;48.872;2.400;2023-04-06T15:28:16;18.50;98.40
69418;DHT22;56610;48.872;2.400;2023-04-06T15:33:31;18.50;98.40
69418;DHT22;56610;48.872;2.400;2023-04-06T15:35:56;18.70;97.90
69418;DHT22;56610;48.872;2.400;2023-04-06T15:38:22;18.70;97.20